createdAt,value
2023-04-15T00:00:56.738Z,101066.59
2023-04-15T00:03:23.708Z,101081.72
2023-04-15T00:05:51.975Z,101075.69
2023-04-15T00:08:18.970Z,101077.06
2023-04-15T00:10:45.684Z,101076.72
2023-04-15T00:13:12.657Z,101078.97
2023-04-15T00:15:39.453Z,101079.72
2023-04-15T00:18:06.191Z,101072.78
2023-04-15T00:20:32.943Z,101074.28
2023-04-15T00:23:02.719Z,101086.84
2023-04-15T00:25:29.523Z,101083.09
2023-04-15T00:27:56.416Z,101079.69
2023-04-15T00:30:23.356Z,101078.84
2023-04-15T00:32:50.111Z,101080.88
2023-04-15T00:35:21.274Z,101075.69
2023-04-15T00:37:48.419Z,101090.28
2023-04-15T00:40:19.070Z,101080.72
2023-04-15T00:42:46.018Z,101082.88
2023-04-15T00:45:13.759Z,101087.56
2023-04-15T00:47:43.081Z,101089.28
2023-04-15T00:50:10.845Z,101089.63
2023-04-15T00:52:38.473Z,101093.63
2023-04-15T00:55:06.695Z,101095.59
2023-04-15T00:57:35.730Z,101088.00
2023-04-15T01:00:02.901Z,101087.09
2023-04-15T01:02:29.970Z,101086.16
2023-04-15T01:04:56.974Z,101088.13
2023-04-15T01:07:24.117Z,101096.66
2023-04-15T01:09:51.687Z,101088.19
2023-04-15T01:12:20.414Z,101097.84
2023-04-15T01:14:48.890Z,101095.22
2023-04-15T01:17:15.978Z,101099.66
2023-04-15T01:19:43.062Z,101104.34
2023-04-15T01:22:10.251Z,101099.41
2023-04-15T01:24:38.683Z,101102.22
2023-04-15T01:27:06.940Z,101104.19
2023-04-15T01:29:38.209Z,101094.28
2023-04-15T01:32:05.764Z,101098.25
2023-04-15T01:34:35.016Z,101095.44
2023-04-15T01:37:02.564Z,101103.25
2023-04-15T01:39:29.361Z,101103.75
2023-04-15T01:41:56.930Z,101106.75
2023-04-15T01:44:25.902Z,101107.72
2023-04-15T01:46:52.762Z,101108.94
2023-04-15T01:49:20.440Z,101112.53
2023-04-15T01:51:47.371Z,101099.03
2023-04-15T01:54:14.188Z,101108.09
2023-04-15T01:56:41.096Z,101113.84
2023-04-15T01:59:08.028Z,101109.66
2023-04-15T02:01:36.322Z,101101.53
2023-04-15T02:04:03.446Z,101099.41
2023-04-15T02:06:31.571Z,101119.47
2023-04-15T02:08:58.448Z,101109.31
2023-04-15T02:11:25.398Z,101100.50
2023-04-15T02:13:53.006Z,101115.47
2023-04-15T02:16:20.429Z,101113.06
2023-04-15T02:18:48.718Z,101114.53
2023-04-15T02:21:15.442Z,101118.56
2023-04-15T02:23:42.311Z,101117.19
2023-04-15T02:26:11.711Z,101121.97
2023-04-15T02:28:38.843Z,101121.97
2023-04-15T02:31:06.511Z,101127.50
2023-04-15T02:33:33.395Z,101126.06
2023-04-15T02:36:02.688Z,101135.09
2023-04-15T02:38:29.565Z,101144.88
2023-04-15T02:40:56.308Z,101136.94
2023-04-15T02:43:23.204Z,101143.22
2023-04-15T02:45:51.409Z,101148.63
2023-04-15T02:48:18.350Z,101149.66
2023-04-15T02:50:46.370Z,101151.16
2023-04-15T02:53:15.980Z,101154.59
2023-04-15T02:55:42.881Z,101153.97
2023-04-15T02:58:09.876Z,101157.41
2023-04-15T03:00:37.205Z,101157.84
2023-04-15T03:03:06.853Z,101160.25
2023-04-15T03:05:33.898Z,101164.00
2023-04-15T03:08:03.740Z,101157.25
2023-04-15T03:10:31.908Z,101163.28
2023-04-15T03:12:58.766Z,101163.34
2023-04-15T03:15:25.656Z,101168.81
2023-04-15T03:17:53.921Z,101175.06
2023-04-15T03:20:20.916Z,101177.09
2023-04-15T03:22:48.585Z,101169.72
2023-04-15T03:25:15.749Z,101177.75
2023-04-15T03:27:44.792Z,101186.19
2023-04-15T03:30:13.277Z,101188.81
2023-04-15T03:32:41.173Z,101195.19
2023-04-15T03:35:09.434Z,101194.44
2023-04-15T03:37:36.365Z,101192.94
2023-04-15T03:40:03.204Z,101193.47
2023-04-15T03:42:29.927Z,101196.75
2023-04-15T03:44:58.083Z,101198.72
2023-04-15T03:47:24.922Z,101198.88
2023-04-15T03:49:51.704Z,101201.75
2023-04-15T03:52:18.516Z,101212.81
2023-04-15T03:54:45.301Z,101209.13
2023-04-15T03:57:12.033Z,101214.38
2023-04-15T03:59:38.974Z,101214.38
2023-04-15T04:02:07.285Z,101214.69
2023-04-15T04:04:34.380Z,101214.34
2023-04-15T04:07:01.205Z,101220.72
2023-04-15T04:09:28.087Z,101226.69
2023-04-15T04:11:55.097Z,101233.28
2023-04-15T04:14:21.956Z,101233.66
2023-04-15T04:16:49.146Z,101233.75
2023-04-15T04:19:17.426Z,101237.31
2023-04-15T04:21:44.145Z,101237.47
2023-04-15T04:24:10.955Z,101246.97
2023-04-15T04:26:37.931Z,101247.69
2023-04-15T04:29:04.687Z,101246.81
2023-04-15T04:31:31.544Z,101252.16
2023-04-15T04:33:58.316Z,101257.41
2023-04-15T04:36:26.462Z,101258.66
2023-04-15T04:38:53.742Z,101259.53
2023-04-15T04:41:20.625Z,101265.75
2023-04-15T04:43:47.479Z,101271.25
2023-04-15T04:46:14.267Z,101275.75
2023-04-15T04:48:41.022Z,101269.53
2023-04-15T04:51:08.019Z,101277.66
2023-04-15T04:53:36.476Z,101284.16
2023-04-15T04:56:03.566Z,101282.38
2023-04-15T04:58:30.685Z,101285.69
2023-04-15T05:00:57.472Z,101282.88
2023-04-15T05:03:24.491Z,101292.53
2023-04-15T05:05:51.369Z,101284.34
2023-04-15T05:08:18.517Z,101290.34
2023-04-15T05:10:46.732Z,101293.72
2023-04-15T05:13:13.469Z,101304.28
2023-04-15T05:15:40.436Z,101311.41
2023-04-15T05:18:07.408Z,101304.47
2023-04-15T05:20:34.196Z,101306.16
2023-04-15T05:23:01.351Z,101318.50
2023-04-15T05:25:28.147Z,101319.81
2023-04-15T05:27:56.317Z,101327.03
2023-04-15T05:30:23.130Z,101332.50
2023-04-15T05:32:50.309Z,101336.00
2023-04-15T05:35:17.250Z,101340.22
2023-04-15T05:37:44.133Z,101347.78
2023-04-15T05:40:11.391Z,101345.75
2023-04-15T05:42:38.189Z,101350.75
2023-04-15T05:45:07.542Z,101348.91
2023-04-15T05:47:34.529Z,101353.16
2023-04-15T05:50:01.336Z,101359.31
2023-04-15T05:52:28.066Z,101358.16
2023-04-15T05:54:54.840Z,101366.72
2023-04-15T05:57:21.608Z,101365.72
2023-04-15T05:59:48.725Z,101367.44
2023-04-15T06:02:16.866Z,101373.81
2023-04-15T06:04:43.817Z,101375.44
2023-04-15T06:07:11.082Z,101386.81
2023-04-15T06:09:37.757Z,101390.94
2023-04-15T06:12:04.696Z,101393.97
2023-04-15T06:14:31.417Z,101396.53
2023-04-15T06:16:58.133Z,101398.69
2023-04-15T06:19:26.180Z,101401.44
2023-04-15T06:21:53.040Z,101409.06
2023-04-15T06:24:19.938Z,101411.94
2023-04-15T06:26:47.003Z,101417.66
2023-04-15T06:29:13.978Z,101417.91
2023-04-15T06:31:40.839Z,101423.06
2023-04-15T06:34:07.622Z,101426.88
2023-04-15T06:36:35.811Z,101433.31
2023-04-15T06:39:02.849Z,101437.72
2023-04-15T06:41:30.044Z,101444.34
2023-04-15T06:43:56.898Z,101446.19
2023-04-15T06:46:24.226Z,101441.28
2023-04-15T06:48:51.239Z,101450.91
2023-04-15T06:51:18.112Z,101447.22
2023-04-15T06:53:46.165Z,101461.66
2023-04-15T06:56:12.876Z,101453.09
2023-04-15T06:58:39.958Z,101455.94
2023-04-15T07:01:06.941Z,101459.97
2023-04-15T07:03:34.162Z,101463.91
2023-04-15T07:06:00.970Z,101462.28
2023-04-15T07:08:28.829Z,101462.34
2023-04-15T07:10:57.132Z,101468.56
2023-04-15T07:13:24.831Z,101464.59
2023-04-15T07:15:54.617Z,101471.81
2023-04-15T07:18:21.525Z,101472.06
2023-04-15T07:20:48.593Z,101482.09
2023-04-15T07:23:15.556Z,101472.97
2023-04-15T07:25:42.749Z,101489.59
2023-04-15T07:28:14.749Z,101497.84
2023-04-15T07:30:41.740Z,101491.84
2023-04-15T07:33:08.512Z,101506.06
2023-04-15T07:35:35.268Z,101504.53
2023-04-15T07:38:02.043Z,101510.88
2023-04-15T07:40:28.755Z,101508.63
2023-04-15T07:42:56.727Z,101513.59
2023-04-15T07:45:24.845Z,101522.84
2023-04-15T07:47:51.635Z,101529.56
2023-04-15T07:50:18.594Z,101534.22
2023-04-15T07:52:45.503Z,101539.00
2023-04-15T07:55:12.238Z,101546.13
2023-04-15T07:57:38.999Z,101554.22
2023-04-15T08:00:07.769Z,101542.41
2023-04-15T08:02:42.635Z,101549.16
2023-04-15T08:05:10.123Z,101568.34
2023-04-15T08:07:37.306Z,101559.53
2023-04-15T08:10:04.933Z,101561.19
2023-04-15T08:12:31.854Z,101563.06
2023-04-15T08:14:59.287Z,101557.69
2023-04-15T08:17:26.174Z,101563.19
2023-04-15T08:19:54.414Z,101560.28
2023-04-15T08:22:22.353Z,101560.94
2023-04-15T08:24:49.587Z,101562.06
2023-04-15T08:27:16.283Z,101560.44
2023-04-15T08:29:43.082Z,101570.66
2023-04-15T08:32:10.178Z,101565.97
2023-04-15T08:34:36.995Z,101570.41
2023-04-15T08:37:05.133Z,101576.75
2023-04-15T08:39:32.009Z,101577.50
2023-04-15T08:42:01.833Z,101572.44
2023-04-15T08:44:30.623Z,101587.31
2023-04-15T08:47:01.431Z,101604.38
2023-04-15T08:49:30.141Z,101598.34
2023-04-15T08:51:59.544Z,101597.63
2023-04-15T08:54:28.142Z,101599.31
2023-04-15T08:56:55.864Z,101608.16
2023-04-15T08:59:23.143Z,101596.81
2023-04-15T09:01:50.544Z,101607.38
2023-04-15T09:04:17.962Z,101609.88
2023-04-15T09:06:44.858Z,101615.19
2023-04-15T09:09:12.798Z,101620.00
2023-04-15T09:11:41.394Z,101615.56
2023-04-15T09:14:08.172Z,101627.13
2023-04-15T09:16:56.974Z,101624.75
2023-04-15T09:19:29.600Z,101625.66
2023-04-15T09:21:58.901Z,101637.44
2023-04-15T09:24:34.073Z,101632.19
2023-04-15T09:27:04.193Z,101638.22
2023-04-15T09:29:39.006Z,101638.03
2023-04-15T09:32:14.321Z,101639.38
2023-04-15T09:34:41.043Z,101650.16
2023-04-15T09:37:34.554Z,101646.03
2023-04-15T09:40:01.438Z,101650.38
2023-04-15T09:42:29.985Z,101654.91
2023-04-15T09:45:07.964Z,101660.63
2023-04-15T09:47:35.195Z,101663.06
2023-04-15T09:50:02.209Z,101649.81
2023-04-15T09:52:29.316Z,101672.56
2023-04-15T09:54:57.806Z,101666.31
2023-04-15T09:57:24.885Z,101681.22
2023-04-15T09:59:53.352Z,101677.19
2023-04-15T10:02:20.713Z,101678.13
2023-04-15T10:04:48.569Z,101681.00
2023-04-15T10:07:15.725Z,101687.00
2023-04-15T10:09:44.164Z,101699.72
2023-04-15T10:12:11.311Z,101697.34
2023-04-15T10:14:39.137Z,101699.63
2023-04-15T10:17:11.345Z,101705.09
2023-04-15T10:19:38.508Z,101704.06
2023-04-15T10:22:06.535Z,101708.16
2023-04-15T10:24:33.871Z,101702.09
2023-04-15T10:27:01.118Z,101713.50
2023-04-15T10:29:28.088Z,101711.75
2023-04-15T10:31:55.614Z,101718.56
2023-04-15T10:34:24.636Z,101721.03
2023-04-15T10:36:51.770Z,101724.00
2023-04-15T10:39:41.281Z,101722.72
2023-04-15T10:42:09.496Z,101719.28
2023-04-15T10:44:37.076Z,101728.78
2023-04-15T10:47:10.060Z,101729.47
2023-04-15T10:49:43.832Z,101736.72
2023-04-15T10:52:10.805Z,101735.56
2023-04-15T10:54:37.583Z,101739.81
2023-04-15T10:57:09.822Z,101736.91
2023-04-15T10:59:38.798Z,101733.66
2023-04-15T11:02:07.235Z,101750.00
2023-04-15T11:04:55.573Z,101756.31
2023-04-15T11:07:38.174Z,101747.75
2023-04-15T11:10:52.139Z,101747.16
2023-04-15T11:13:25.418Z,101752.31
2023-04-15T11:15:56.951Z,101754.94
2023-04-15T11:18:24.803Z,101755.88
2023-04-15T11:20:54.311Z,101757.19
2023-04-15T11:23:28.519Z,101762.28
2023-04-15T11:25:56.073Z,101765.09
2023-04-15T11:28:26.383Z,101763.03
2023-04-15T11:30:53.067Z,101771.78
2023-04-15T11:33:19.858Z,101773.00
2023-04-15T11:35:46.729Z,101768.03
2023-04-15T11:38:15.763Z,101766.56
2023-04-15T11:40:46.246Z,101771.25
2023-04-15T11:43:15.240Z,101779.47
2023-04-15T11:45:50.830Z,101786.06
2023-04-15T11:48:18.235Z,101789.78
2023-04-15T11:50:45.124Z,101791.63
2023-04-15T11:53:14.126Z,101787.41
2023-04-15T11:55:46.748Z,101797.06
2023-04-15T11:58:16.348Z,101793.06
2023-04-15T12:00:48.153Z,101796.31
2023-04-15T12:03:20.213Z,101795.66
2023-04-15T12:06:10.148Z,101797.41
2023-04-15T12:09:04.203Z,101807.78
2023-04-15T12:11:33.689Z,101814.84
2023-04-15T12:14:03.771Z,101813.75
2023-04-15T12:16:31.091Z,101818.66
2023-04-15T12:18:59.656Z,101811.97
2023-04-15T12:21:28.636Z,101824.06
2023-04-15T12:23:56.782Z,101828.94
2023-04-15T12:26:30.574Z,101818.72
2023-04-15T12:29:01.933Z,101833.06
2023-04-15T12:31:29.230Z,101828.91
2023-04-15T12:33:56.520Z,101838.06
2023-04-15T12:36:23.394Z,101843.03
2023-04-15T12:38:50.626Z,101861.00
2023-04-15T12:41:17.417Z,101848.38
2023-04-15T12:43:46.016Z,101852.03
2023-04-15T12:46:13.633Z,101864.22
2023-04-15T12:48:40.720Z,101870.66
2023-04-15T12:51:07.530Z,101874.66
2023-04-15T12:53:34.600Z,101873.94
2023-04-15T12:56:01.401Z,101877.00
2023-04-15T12:58:28.542Z,101867.44
2023-04-15T13:00:56.717Z,101880.91
2023-04-15T13:03:23.854Z,101874.78
2023-04-15T13:05:50.826Z,101889.47
2023-04-15T13:08:17.624Z,101882.31
2023-04-15T13:10:44.572Z,101891.69
2023-04-15T13:13:11.375Z,101890.47
2023-04-15T13:15:38.193Z,101880.69
2023-04-15T13:18:07.431Z,101889.44
2023-04-15T13:20:34.222Z,101901.81
2023-04-15T13:23:01.227Z,101904.19
2023-04-15T13:25:28.319Z,101895.56
2023-04-15T13:27:55.865Z,101896.03
2023-04-15T13:30:22.768Z,101898.91
2023-04-15T13:32:50.552Z,101902.88
2023-04-15T13:35:19.277Z,101902.09
2023-04-15T13:37:46.153Z,101914.34
2023-04-15T13:40:13.113Z,101911.00
2023-04-15T13:42:39.951Z,101904.44
2023-04-15T13:45:07.993Z,101921.41
2023-04-15T13:47:34.829Z,101916.66
2023-04-15T13:50:02.124Z,101908.72
2023-04-15T13:52:30.302Z,101924.41
2023-04-15T13:55:08.408Z,101922.81
2023-04-15T13:57:44.048Z,101939.38
2023-04-15T14:00:12.049Z,101938.25
2023-04-15T14:02:40.924Z,101952.41
2023-04-15T14:05:08.748Z,101950.06
2023-04-15T14:07:37.437Z,101960.31
2023-04-15T14:10:05.135Z,101953.16
2023-04-15T14:12:32.058Z,101957.75
2023-04-15T14:14:58.882Z,101961.78
2023-04-15T14:17:25.815Z,101968.38
2023-04-15T14:19:52.571Z,101970.00
2023-04-15T14:22:19.658Z,101982.59
2023-04-15T14:24:47.869Z,101976.50
2023-04-15T14:27:14.676Z,101981.25
2023-04-15T14:29:41.460Z,101983.34
2023-04-15T14:32:11.812Z,101980.84
2023-04-15T14:34:39.361Z,101987.19
2023-04-15T14:37:06.467Z,101975.19
2023-04-15T14:39:33.438Z,101965.94
2023-04-15T14:42:01.991Z,101988.25
2023-04-15T14:44:29.104Z,101980.41
2023-04-15T14:46:56.077Z,102007.19
2023-04-15T14:49:23.029Z,101982.69
2023-04-15T14:51:49.816Z,101992.84
2023-04-15T14:54:16.712Z,102001.53
2023-04-15T14:56:43.415Z,101991.94
2023-04-15T14:59:11.538Z,102001.41
2023-04-15T15:01:38.538Z,101999.69
2023-04-15T15:04:05.545Z,102006.44
2023-04-15T15:06:32.508Z,102002.59
2023-04-15T15:08:59.455Z,102014.84
2023-04-15T15:11:26.553Z,102019.78
2023-04-15T15:13:53.318Z,102017.22
2023-04-15T15:16:21.545Z,101997.28
2023-04-15T15:18:48.453Z,102013.75
2023-04-15T15:21:15.257Z,102016.69
2023-04-15T15:23:42.168Z,102030.41
2023-04-15T15:26:09.099Z,102031.75
2023-04-15T15:28:36.196Z,102042.94
2023-04-15T15:31:02.970Z,102048.25
2023-04-15T15:33:31.391Z,102054.38
2023-04-15T15:35:58.287Z,102043.19
2023-04-15T15:38:25.084Z,102050.25
2023-04-15T15:40:51.895Z,102054.72
2023-04-15T15:43:18.647Z,102039.75
2023-04-15T15:45:45.798Z,102049.06
2023-04-15T15:48:12.622Z,102043.06
2023-04-15T15:50:40.874Z,102049.09
2023-04-15T15:53:07.666Z,102045.81
2023-04-15T15:55:34.446Z,102053.81
2023-04-15T15:58:01.253Z,102048.50
2023-04-15T16:00:28.050Z,102055.41
2023-04-15T16:03:06.678Z,102059.66
2023-04-15T16:05:34.694Z,102075.84
2023-04-15T16:08:02.923Z,102065.09
2023-04-15T16:10:29.936Z,102078.94
2023-04-15T16:12:57.898Z,102078.94
2023-04-15T16:15:27.683Z,102074.72
2023-04-15T16:17:54.209Z,102086.56
2023-04-15T16:20:20.913Z,102087.06
2023-04-15T16:22:47.896Z,102076.41
2023-04-15T16:25:16.018Z,102090.38
2023-04-15T16:27:57.170Z,102091.97
2023-04-15T16:30:26.383Z,102095.00
2023-04-15T16:32:53.280Z,102094.91
2023-04-15T16:35:20.217Z,102107.63
2023-04-15T16:37:46.966Z,102102.09
2023-04-15T16:40:13.962Z,102096.53
2023-04-15T16:42:42.091Z,102090.91
2023-04-15T16:45:09.755Z,102098.03
2023-04-15T16:47:36.538Z,102101.81
2023-04-15T16:50:03.383Z,102108.19
2023-04-15T16:52:30.164Z,102119.94
2023-04-15T16:54:56.962Z,102109.19
2023-04-15T16:57:24.670Z,102122.66
2023-04-15T16:59:57.725Z,102117.78
2023-04-15T17:02:25.169Z,102105.16
2023-04-15T17:04:52.725Z,102127.22
2023-04-15T17:07:19.432Z,102133.91
2023-04-15T17:09:46.302Z,102121.44
2023-04-15T17:12:14.109Z,102135.00
2023-04-15T17:14:40.777Z,102136.25
2023-04-15T17:17:08.855Z,102132.28
2023-04-15T17:19:35.802Z,102142.69
2023-04-15T17:22:05.740Z,102146.53
2023-04-15T17:24:32.766Z,102141.13
2023-04-15T17:27:00.309Z,102150.78
2023-04-15T17:29:27.742Z,102154.59
2023-04-15T17:31:55.008Z,102162.88
2023-04-15T17:34:23.430Z,102148.88
2023-04-15T17:36:50.285Z,102149.78
2023-04-15T17:39:17.093Z,102157.69
2023-04-15T17:41:44.048Z,102162.28
2023-04-15T17:44:10.829Z,102153.91
2023-04-15T17:46:38.016Z,102161.00
2023-04-15T17:49:04.983Z,102163.63
2023-04-15T17:51:33.421Z,102163.66
2023-04-15T17:54:06.980Z,102150.91
2023-04-15T17:56:36.287Z,102166.25
2023-04-15T17:59:03.314Z,102173.38
2023-04-15T18:01:30.289Z,102170.44
2023-04-15T18:04:06.972Z,102173.16
2023-04-15T18:06:36.808Z,102141.53
2023-04-15T18:09:07.430Z,102169.81
2023-04-15T18:11:34.666Z,102167.41
2023-04-15T18:14:03.157Z,102167.19
2023-04-15T18:16:30.217Z,102183.31
2023-04-15T18:18:57.184Z,102169.16
2023-04-15T18:21:25.363Z,102174.63
2023-04-15T18:23:53.699Z,102171.09
2023-04-15T18:26:20.790Z,102183.56
2023-04-15T18:28:47.683Z,102188.75
2023-04-15T18:31:15.697Z,102179.00
2023-04-15T18:33:42.566Z,102191.28
2023-04-15T18:36:10.103Z,102196.50
2023-04-15T18:38:37.127Z,102195.53
2023-04-15T18:41:05.552Z,102194.91
2023-04-15T18:43:32.500Z,102206.25
2023-04-15T18:45:59.364Z,102202.00
2023-04-15T18:48:26.539Z,102207.19
2023-04-15T18:50:53.385Z,102206.38
2023-04-15T18:53:20.268Z,102209.03
2023-04-15T18:55:47.013Z,102211.78
2023-04-15T18:58:15.310Z,102211.59
2023-04-15T19:00:42.808Z,102209.19
2023-04-15T19:03:09.867Z,102222.44
2023-04-15T19:05:36.893Z,102220.72
2023-04-15T19:08:03.672Z,102220.66
2023-04-15T19:10:30.769Z,102224.97
2023-04-15T19:12:57.531Z,102231.94
2023-04-15T19:15:25.735Z,102239.91
2023-04-15T19:17:52.498Z,102225.84
2023-04-15T19:20:19.291Z,102241.63
2023-04-15T19:22:46.375Z,102237.19
2023-04-15T19:25:13.240Z,102238.06
2023-04-15T19:27:39.929Z,102228.38
2023-04-15T19:30:08.292Z,102233.69
2023-04-15T19:32:36.523Z,102237.31
2023-04-15T19:35:03.480Z,102242.53
2023-04-15T19:37:30.190Z,102255.00
2023-04-15T19:39:56.935Z,102244.44
2023-04-15T19:42:23.895Z,102245.31
2023-04-15T19:44:50.655Z,102249.81
2023-04-15T19:47:17.540Z,102258.53
2023-04-15T19:49:45.690Z,102252.38
2023-04-15T19:52:13.135Z,102256.78
2023-04-15T19:54:39.811Z,102249.75
2023-04-15T19:57:06.653Z,102255.03
2023-04-15T19:59:33.796Z,102254.09
2023-04-15T20:02:00.775Z,102248.94
2023-04-15T20:04:28.023Z,102255.03
2023-04-15T20:06:56.585Z,102263.63
2023-04-15T20:09:23.329Z,102274.34
2023-04-15T20:12:44.960Z,102262.72
2023-04-15T20:14:37.131Z,102255.69
2023-04-15T20:17:03.970Z,102255.69
2023-04-15T20:19:30.954Z,102263.50
2023-04-15T20:21:59.129Z,102268.88
2023-04-15T20:24:26.039Z,102267.03
2023-04-15T20:26:52.902Z,102266.00
2023-04-15T20:29:19.887Z,102258.91
2023-04-15T20:31:46.721Z,102268.56
2023-04-15T20:34:13.820Z,102260.56
2023-04-15T20:36:40.531Z,102262.25
2023-04-15T20:39:08.795Z,102262.13
2023-04-15T20:41:35.606Z,102260.41
2023-04-15T20:44:02.534Z,102253.38
2023-04-15T20:46:30.625Z,102264.09
2023-04-15T20:48:57.471Z,102271.19
2023-04-15T20:51:24.272Z,102267.66
2023-04-15T20:53:51.006Z,102262.25
2023-04-15T20:56:19.164Z,102264.97
2023-04-15T20:58:45.859Z,102272.72
2023-04-15T21:01:12.900Z,102276.38
2023-04-15T21:03:39.891Z,102273.88
2023-04-15T21:06:06.831Z,102272.06
2023-04-15T21:08:33.956Z,102269.44
2023-04-15T21:11:00.798Z,102278.34
2023-04-15T21:13:28.872Z,102263.47
2023-04-15T21:15:55.603Z,102268.69
2023-04-15T21:18:22.730Z,102276.66
2023-04-15T21:20:56.321Z,102278.47
2023-04-15T21:23:23.145Z,102276.75
2023-04-15T21:25:49.901Z,102282.88
2023-04-15T21:28:16.604Z,102268.81
2023-04-15T21:30:45.035Z,102279.38
2023-04-15T21:33:11.792Z,102289.16
2023-04-15T21:35:39.005Z,102297.09
2023-04-15T21:38:06.003Z,102294.53
2023-04-15T21:40:32.984Z,102294.53
2023-04-15T21:42:59.901Z,102299.94
2023-04-15T21:45:26.747Z,102296.38
2023-04-15T21:48:06.078Z,102290.31
2023-04-15T21:50:35.916Z,102303.38
2023-04-15T21:53:02.867Z,102300.84
2023-04-15T21:55:29.653Z,102300.06
2023-04-15T21:57:56.863Z,102304.50
2023-04-15T22:00:24.834Z,102306.25
2023-04-15T22:02:52.276Z,102308.91
2023-04-15T22:05:21.115Z,102307.19
2023-04-15T22:07:48.022Z,102317.78
2023-04-15T22:10:14.936Z,102315.19
2023-04-15T22:12:42.104Z,102321.38
2023-04-15T22:15:09.863Z,102318.75
2023-04-15T22:17:36.719Z,102325.19
2023-04-15T22:20:03.777Z,102327.00
2023-04-15T22:22:43.495Z,102334.25
2023-04-15T22:25:11.000Z,102342.38
2023-04-15T22:27:39.263Z,102332.91
2023-04-15T22:30:07.415Z,102329.59
2023-04-15T22:32:34.286Z,102339.13
2023-04-15T22:35:01.373Z,102342.88
2023-04-15T22:37:35.747Z,102342.13
2023-04-15T22:40:03.049Z,102344.88
2023-04-15T22:42:30.222Z,102356.31
2023-04-15T22:44:57.617Z,102358.13
2023-04-15T22:47:24.674Z,102343.97
2023-04-15T22:49:52.068Z,102357.38
2023-04-15T22:52:29.538Z,102370.50
2023-04-15T22:54:58.649Z,102367.09
2023-04-15T22:57:25.393Z,102375.13
2023-04-15T22:59:52.115Z,102369.91
2023-04-15T23:02:19.041Z,102369.03
2023-04-15T23:04:46.243Z,102384.06
2023-04-15T23:07:13.193Z,102383.94
2023-04-15T23:09:40.052Z,102384.06
2023-04-15T23:12:08.177Z,102391.09
2023-04-15T23:14:34.810Z,102387.56
2023-04-15T23:17:01.578Z,102390.19
2023-04-15T23:19:28.326Z,102389.22
2023-04-15T23:21:55.002Z,102390.13
2023-04-15T23:24:21.659Z,102386.69
2023-04-15T23:26:48.521Z,102386.78
2023-04-15T23:29:16.472Z,102385.84
2023-04-15T23:31:43.230Z,102389.47
2023-04-15T23:34:10.195Z,102385.91
2023-04-15T23:36:36.961Z,102384.06
2023-04-15T23:39:03.905Z,102389.34
2023-04-15T23:41:30.651Z,102395.47
2023-04-15T23:43:57.383Z,102391.00
2023-04-15T23:46:25.607Z,102386.66
2023-04-15T23:48:52.414Z,102389.25
2023-04-15T23:51:19.204Z,102383.94
2023-04-15T23:53:46.305Z,102387.53
2023-04-15T23:56:13.203Z,102390.09
2023-04-15T23:58:40.127Z,102381.25
